Time;durP1;ratioP1;P1;durP2;ratioP2;P2;SDS_P1;SDS_P2;PMS_P1;PMS_P2;Temp;Humidity;BMP_temperature;BMP_pressure;BME280_temperature;BME280_humidity;BME280_pressure;Samples;Min_cycle;Max_cycle;Signal;HPM_P1;HPM_P2
2021/07/02 00:01:02;;;;;;;16.08;5.57;;;16.50;91.00;;;;;;4975127;28;20023;-77
2021/07/02 00:03:27;;;;;;;14.77;5.28;;;16.50;91.00;;;;;;4975766;28;20061;-77
2021/07/02 00:05:53;;;;;;;11.00;4.93;;;16.50;91.10;;;;;;4975005;28;20030;-77
2021/07/02 00:08:25;;;;;;;11.40;4.30;;;16.50;91.10;;;;;;4975302;28;20054;-77
2021/07/02 00:10:51;;;;;;;10.50;4.90;;;16.50;91.10;;;;;;4992522;28;20513;-76
2021/07/02 00:13:16;;;;;;;12.98;5.13;;;16.50;91.10;;;;;;4993265;28;20026;-77
2021/07/02 00:15:42;;;;;;;14.48;5.38;;;16.50;91.10;;;;;;4992428;28;20080;-78
2021/07/02 00:18:08;;;;;;;10.65;5.45;;;16.50;91.10;;;;;;4992928;28;20439;-77
2021/07/02 00:20:33;;;;;;;11.40;5.28;;;16.50;91.10;;;;;;4975385;28;20347;-77
2021/07/02 00:22:59;;;;;;;12.63;4.93;;;16.50;91.10;;;;;;4992261;28;20027;-77
2021/07/02 00:25:25;;;;;;;11.13;4.80;;;16.50;91.10;;;;;;4992787;28;20417;-77
2021/07/02 00:27:50;;;;;;;11.75;5.10;;;16.50;91.10;;;;;;4974725;28;20033;-77
2021/07/02 00:30:16;;;;;;;8.63;4.68;;;16.50;91.20;;;;;;4974983;28;20023;-77
2021/07/02 00:32:42;;;;;;;11.20;5.15;;;16.50;91.20;;;;;;4974428;28;20030;-82
2021/07/02 00:35:08;;;;;;;9.57;4.07;;;16.50;91.20;;;;;;4975339;28;20048;-77
2021/07/02 00:37:34;;;;;;;13.52;5.00;;;16.50;91.20;;;;;;4975361;28;20019;-76
2021/07/02 00:39:59;;;;;;;11.38;5.15;;;16.50;91.20;;;;;;4974459;28;20493;-77
2021/07/02 00:42:25;;;;;;;12.57;5.20;;;16.50;91.20;;;;;;4975195;28;20026;-77
2021/07/02 00:44:51;;;;;;;11.88;5.28;;;16.50;91.20;;;;;;4992189;28;20493;-76
2021/07/02 00:47:18;;;;;;;11.95;5.45;;;16.50;91.20;;;;;;4974982;28;20031;-76
2021/07/02 00:49:44;;;;;;;10.13;5.22;;;16.50;91.50;;;;;;4974481;28;20037;-78
2021/07/02 00:52:11;;;;;;;11.23;5.32;;;16.50;91.20;;;;;;4992492;28;20027;-76
2021/07/02 00:54:38;;;;;;;13.63;5.18;;;16.50;91.20;;;;;;4975083;28;20028;-76
2021/07/02 00:57:06;;;;;;;11.00;5.18;;;16.50;91.20;;;;;;4991782;28;20240;-77
2021/07/02 00:59:32;;;;;;;9.50;5.13;;;16.50;91.20;;;;;;4974943;28;20464;-76
2021/07/02 01:01:58;;;;;;;12.30;5.32;;;16.40;91.20;;;;;;4976087;28;20023;-76
2021/07/02 01:04:24;;;;;;;12.95;5.03;;;16.50;91.30;;;;;;4979047;28;20023;-76
2021/07/02 01:06:51;;;;;;;10.40;5.28;;;16.40;91.30;;;;;;4978201;28;20331;-77
2021/07/02 01:09:18;;;;;;;9.75;4.72;;;16.40;91.30;;;;;;4978675;28;20050;-76
2021/07/02 01:11:44;;;;;;;9.00;4.32;;;16.40;91.30;;;;;;4978880;28;20046;-76
2021/07/02 01:14:09;;;;;;;11.43;4.55;;;16.40;91.30;;;;;;4978230;28;20466;-77
2021/07/02 01:16:37;;;;;;;11.32;5.18;;;16.40;91.30;;;;;;4996203;28;20437;-77
2021/07/02 01:19:03;;;;;;;9.48;5.18;;;16.40;91.30;;;;;;4995657;28;20053;-77
2021/07/02 01:21:29;;;;;;;9.88;5.30;;;16.40;91.30;;;;;;4978648;28;20061;-77
2021/07/02 01:23:54;;;;;;;16.58;5.97;;;16.40;91.40;;;;;;4995270;28;20023;-77
2021/07/02 01:26:21;;;;;;;11.57;5.82;;;16.40;91.40;;;;;;4978458;28;20034;-77
2021/07/02 01:28:47;;;;;;;12.10;4.75;;;16.30;91.40;;;;;;4977845;28;20046;-77
2021/07/02 01:31:13;;;;;;;12.88;5.03;;;16.30;91.40;;;;;;4978507;28;20358;-76
2021/07/02 01:33:38;;;;;;;11.65;5.57;;;16.30;91.50;;;;;;4978509;28;20018;-76
2021/07/02 01:36:09;;;;;;;10.95;5.13;;;16.30;91.50;;;;;;4977745;28;20347;-76
2021/07/02 01:38:36;;;;;;;9.40;5.32;;;16.20;91.60;;;;;;4978344;28;20041;-76
2021/07/02 01:41:02;;;;;;;10.38;4.97;;;16.20;91.60;;;;;;4994886;28;20097;-76
2021/07/02 01:43:28;;;;;;;10.05;5.38;;;16.20;91.60;;;;;;4978328;28;20030;-76
2021/07/02 01:45:54;;;;;;;15.10;6.40;;;16.20;91.60;;;;;;4994864;28;20031;-76
2021/07/02 01:48:21;;;;;;;13.82;5.35;;;16.20;91.60;;;;;;4995826;28;20061;-76
2021/07/02 01:50:46;;;;;;;7.70;3.67;;;16.30;91.60;;;;;;4978111;28;20023;-76
2021/07/02 01:53:12;;;;;;;13.23;4.80;;;16.20;91.50;;;;;;4977386;28;20402;-76
2021/07/02 01:55:38;;;;;;;12.38;5.40;;;16.20;91.50;;;;;;4977988;28;20104;-77
2021/07/02 01:58:03;;;;;;;9.85;4.45;;;16.20;91.50;;;;;;4994624;28;20382;-77
2021/07/02 02:00:31;;;;;;;12.85;5.65;;;16.20;91.50;;;;;;4977944;28;20038;-78
2021/07/02 02:02:56;;;;;;;11.00;4.70;;;16.20;91.50;;;;;;4994770;28;20065;-77
2021/07/02 02:05:22;;;;;;;11.70;5.55;;;16.30;91.50;;;;;;4977821;28;20030;-77
2021/07/02 02:07:48;;;;;;;12.90;5.03;;;16.20;91.40;;;;;;4977630;28;20022;-77
2021/07/02 02:10:14;;;;;;;11.32;5.18;;;16.20;91.40;;;;;;4994859;28;20026;-77
2021/07/02 02:12:40;;;;;;;11.00;5.50;;;16.20;91.40;;;;;;4995110;28;20441;-77
2021/07/02 02:15:07;;;;;;;10.90;5.25;;;16.20;91.40;;;;;;4977024;28;20018;-77
2021/07/02 02:17:34;;;;;;;10.68;5.00;;;16.20;91.40;;;;;;4977615;28;20370;-77
2021/07/02 02:19:59;;;;;;;11.82;5.20;;;16.20;91.30;;;;;;4976851;28;20018;-76
2021/07/02 02:22:25;;;;;;;9.32;4.72;;;16.10;91.30;;;;;;4977194;28;20029;-77
2021/07/02 02:24:51;;;;;;;11.40;5.53;;;16.20;91.40;;;;;;4994484;28;20032;-78
2021/07/02 02:27:17;;;;;;;12.77;5.07;;;16.20;91.30;;;;;;4977442;28;20112;-76
2021/07/02 02:29:43;;;;;;;10.75;4.97;;;16.20;91.30;;;;;;4994883;28;20026;-75
2021/07/02 02:32:09;;;;;;;10.77;4.60;;;16.20;91.30;;;;;;4976674;28;20137;-75
2021/07/02 02:34:35;;;;;;;11.93;5.20;;;16.20;91.20;;;;;;4977211;28;20460;-76
2021/07/02 02:37:01;;;;;;;12.77;5.30;;;16.20;91.20;;;;;;4976586;28;20433;-76
2021/07/02 02:39:27;;;;;;;13.95;5.25;;;16.20;91.20;;;;;;4976971;28;20033;-76
2021/07/02 02:41:53;;;;;;;13.32;5.15;;;16.20;91.20;;;;;;4976563;28;20375;-77
2021/07/02 02:44:18;;;;;;;9.32;4.32;;;16.20;91.20;;;;;;4977242;28;20058;-76
2021/07/02 02:46:44;;;;;;;10.13;4.57;;;16.20;91.20;;;;;;4994758;28;20041;-76
2021/07/02 02:49:10;;;;;;;9.13;4.13;;;16.20;91.10;;;;;;4976568;28;20390;-76
2021/07/02 02:51:35;;;;;;;14.32;5.13;;;16.20;91.10;;;;;;4977074;28;20029;-76
2021/07/02 02:54:01;;;;;;;8.45;4.72;;;16.20;91.10;;;;;;4993750;28;20084;-76
2021/07/02 02:56:27;;;;;;;12.02;4.80;;;16.20;91.10;;;;;;4976973;28;20528;-77
2021/07/02 02:58:52;;;;;;;12.75;5.55;;;16.10;91.10;;;;;;4994060;28;20030;-81
2021/07/02 03:01:18;;;;;;;11.80;4.93;;;16.10;91.10;;;;;;4976836;28;20023;-76
2021/07/02 03:03:44;;;;;;;12.55;5.90;;;16.10;91.20;;;;;;4976779;28;20022;-76
2021/07/02 03:06:09;;;;;;;11.73;5.22;;;16.10;91.20;;;;;;4976091;28;20077;-77
2021/07/02 03:08:37;;;;;;;9.45;4.50;;;16.00;91.20;;;;;;4976401;28;20197;-75
2021/07/02 03:11:03;;;;;;;9.48;4.65;;;16.00;91.20;;;;;;4976055;28;20026;-76
2021/07/02 03:13:29;;;;;;;10.60;4.95;;;16.00;91.30;;;;;;4993986;28;20072;-76
2021/07/02 03:15:54;;;;;;;11.45;5.53;;;16.00;91.30;;;;;;4975907;28;20034;-77
2021/07/02 03:18:20;;;;;;;10.63;5.72;;;16.00;91.40;;;;;;4976465;28;20034;-75
2021/07/02 03:20:46;;;;;;;11.90;5.32;;;15.90;91.40;;;;;;4976537;28;20117;-76
2021/07/02 03:23:11;;;;;;;10.95;4.53;;;15.90;91.40;;;;;;4975456;28;20034;-76
2021/07/02 03:25:37;;;;;;;13.25;4.80;;;15.80;91.50;;;;;;4975920;28;20110;-77
2021/07/02 03:28:03;;;;;;;11.43;4.90;;;15.80;91.50;;;;;;4975775;28;20517;-78
2021/07/02 03:30:29;;;;;;;9.63;4.78;;;15.80;91.60;;;;;;4976346;28;20521;-77
2021/07/02 03:32:55;;;;;;;13.80;4.85;;;15.80;91.60;;;;;;4975560;28;20107;-81
2021/07/02 03:35:21;;;;;;;13.20;5.07;;;15.70;91.60;;;;;;4976354;28;20440;-77
2021/07/02 03:37:46;;;;;;;13.93;5.82;;;15.80;91.60;;;;;;4976078;28;20022;-77
2021/07/02 03:40:13;;;;;;;12.15;4.97;;;15.80;91.60;;;;;;4975445;28;20022;-77
2021/07/02 03:42:38;;;;;;;12.90;5.28;;;15.80;91.50;;;;;;4975988;28;20029;-77
2021/07/02 03:45:05;;;;;;;13.43;5.25;;;15.80;91.50;;;;;;4992890;28;20031;-75
2021/07/02 03:47:32;;;;;;;13.57;5.30;;;15.90;91.50;;;;;;4975960;28;20378;-76
2021/07/02 03:49:58;;;;;;;11.95;5.35;;;15.90;91.40;;;;;;4993199;28;20030;-76
2021/07/02 03:52:23;;;;;;;10.77;4.85;;;15.90;91.40;;;;;;4975836;28;20484;-76
2021/07/02 03:54:51;;;;;;;10.98;5.13;;;15.90;91.50;;;;;;4993262;28;20030;-75
2021/07/02 03:57:19;;;;;;;13.93;5.90;;;15.90;91.40;;;;;;4992704;28;20121;-76
2021/07/02 03:59:50;;;;;;;11.38;4.68;;;15.90;91.30;;;;;;4975707;28;20386;-75
2021/07/02 04:02:17;;;;;;;9.25;4.95;;;16.00;91.30;;;;;;4975174;28;20030;-76
2021/07/02 04:04:43;;;;;;;10.68;5.45;;;16.00;91.30;;;;;;4975831;28;20501;-75
2021/07/02 04:07:11;;;;;;;10.07;4.68;;;16.00;91.20;;;;;;4974913;28;20080;-76
2021/07/02 04:09:38;;;;;;;11.65;5.55;;;16.00;91.20;;;;;;4975182;28;20046;-76
2021/07/02 04:12:04;;;;;;;13.18;5.55;;;16.00;91.20;;;;;;4974982;28;20095;-77
2021/07/02 04:14:30;;;;;;;11.57;4.78;;;16.00;91.20;;;;;;4992811;28;20181;-77
2021/07/02 04:16:57;;;;;;;10.18;5.03;;;16.00;91.20;;;;;;4975550;28;20030;-76
2021/07/02 04:19:23;;;;;;;13.35;5.85;;;16.00;91.10;;;;;;4975175;28;20022;-76
2021/07/02 04:21:49;;;;;;;10.80;4.82;;;16.00;91.10;;;;;;4975389;28;20117;-75
2021/07/02 04:24:16;;;;;;;12.27;4.65;;;16.00;91.10;;;;;;4974719;28;20554;-75
2021/07/02 04:26:42;;;;;;;11.85;5.75;;;16.00;91.10;;;;;;4975279;28;20033;-76
2021/07/02 04:29:08;;;;;;;13.73;6.20;;;16.00;91.10;;;;;;4974621;28;20110;-76
2021/07/02 04:31:34;;;;;;;14.98;6.80;;;16.00;91.10;;;;;;4975449;28;20022;-77
2021/07/02 04:34:00;;;;;;;12.98;6.20;;;16.00;91.10;;;;;;4974692;28;20470;-77
2021/07/02 04:36:25;;;;;;;13.00;6.25;;;16.00;91.10;;;;;;4974579;28;20053;-76
2021/07/02 04:38:53;;;;;;;15.98;6.38;;;16.00;91.10;;;;;;4974884;28;20022;-76
2021/07/02 04:41:19;;;;;;;12.32;6.25;;;16.00;91.10;;;;;;4974495;28;20022;-76
2021/07/02 04:43:45;;;;;;;14.35;6.03;;;16.00;91.10;;;;;;4975386;28;20069;-75
2021/07/02 04:46:11;;;;;;;13.77;6.20;;;16.00;91.10;;;;;;4974350;28;20053;-75
2021/07/02 04:48:36;;;;;;;13.20;6.68;;;15.90;91.00;;;;;;4975087;28;20112;-76
2021/07/02 04:51:02;;;;;;;12.05;6.72;;;15.90;91.10;;;;;;4974469;28;20496;-76
2021/07/02 04:53:28;;;;;;;14.43;6.28;;;15.90;91.10;;;;;;4992482;28;20022;-75
2021/07/02 04:55:53;;;;;;;14.25;6.50;;;15.90;91.10;;;;;;4992497;28;20026;-75
2021/07/02 04:58:21;;;;;;;16.42;6.68;;;15.80;91.20;;;;;;4992098;28;20110;-76
2021/07/02 05:00:46;;;;;;;15.48;6.25;;;15.80;91.20;;;;;;4975000;28;20033;-75
2021/07/02 05:03:12;;;;;;;15.77;6.38;;;15.80;91.20;;;;;;4991845;28;20026;-77
2021/07/02 05:05:38;;;;;;;14.98;6.55;;;15.80;91.20;;;;;;4992155;28;20026;-77
2021/07/02 05:08:05;;;;;;;12.35;6.35;;;15.80;91.20;;;;;;4974179;28;20027;-78
2021/07/02 05:10:31;;;;;;;12.38;6.20;;;15.80;91.20;;;;;;4992046;28;20046;-76
2021/07/02 05:12:57;;;;;;;12.82;6.65;;;15.90;91.10;;;;;;4975053;28;20035;-75
2021/07/02 05:15:22;;;;;;;11.38;5.38;;;15.90;91.10;;;;;;4974274;28;20109;-75
2021/07/02 05:17:48;;;;;;;14.90;7.00;;;15.90;91.10;;;;;;4974742;28;20485;-75
2021/07/02 05:20:14;;;;;;;16.45;7.10;;;15.90;91.10;;;;;;4991703;28;20049;-76
2021/07/02 05:22:39;;;;;;;15.30;6.57;;;15.90;91.10;;;;;;4992654;28;20444;-77
2021/07/02 05:25:06;;;;;;;13.00;6.13;;;15.90;91.00;;;;;;4973807;28;20394;-77
2021/07/02 05:27:32;;;;;;;12.90;6.00;;;15.90;91.00;;;;;;4992166;28;20031;-77
2021/07/02 05:29:58;;;;;;;17.90;7.38;;;15.90;91.00;;;;;;4974713;28;20018;-77
2021/07/02 05:32:24;;;;;;;14.02;6.93;;;15.90;91.00;;;;;;4974258;28;20073;-77
2021/07/02 05:34:49;;;;;;;14.30;6.60;;;15.90;91.00;;;;;;4974784;28;20030;-77
2021/07/02 05:37:15;;;;;;;15.25;6.35;;;15.90;91.10;;;;;;4991487;28;20081;-77
2021/07/02 05:39:40;;;;;;;14.55;6.57;;;15.90;91.10;;;;;;4992166;28;20019;-76
2021/07/02 05:42:06;;;;;;;18.23;7.38;;;15.90;91.10;;;;;;4990897;28;20390;-77
2021/07/02 05:44:32;;;;;;;14.38;6.75;;;15.90;91.10;;;;;;4974220;28;20014;-77
2021/07/02 05:46:58;;;;;;;14.82;7.10;;;15.90;91.10;;;;;;4974615;28;20033;-76
2021/07/02 05:49:23;;;;;;;15.90;6.55;;;15.80;91.10;;;;;;4995143;28;20752;-77
2021/07/02 05:51:49;;;;;;;15.18;6.28;;;15.80;91.10;;;;;;4978309;28;20063;-76
2021/07/02 05:54:15;;;;;;;13.57;5.70;;;15.80;91.10;;;;;;4977387;28;20023;-76
2021/07/02 05:56:41;;;;;;;15.45;7.15;;;15.80;91.10;;;;;;4995434;28;20308;-76
2021/07/02 05:59:07;;;;;;;15.07;6.55;;;15.80;91.10;;;;;;4977331;28;20018;-77
2021/07/02 06:01:32;;;;;;;15.63;6.75;;;15.80;91.20;;;;;;4995570;28;20353;-77
2021/07/02 06:03:58;;;;;;;15.90;6.45;;;15.80;91.10;;;;;;4977937;28;20421;-77
2021/07/02 06:06:24;;;;;;;16.08;6.78;;;15.80;91.10;;;;;;4977094;28;20030;-75
2021/07/02 06:08:52;;;;;;;15.40;7.07;;;15.90;91.10;;;;;;4995180;28;20050;-75
2021/07/02 06:11:18;;;;;;;15.32;7.00;;;15.90;91.00;;;;;;4977253;28;20077;-76
2021/07/02 06:13:44;;;;;;;11.90;6.30;;;15.90;91.00;;;;;;4977713;28;20422;-78
2021/07/02 06:16:09;;;;;;;15.55;6.88;;;15.90;90.90;;;;;;4977037;28;20529;-77
2021/07/02 06:18:35;;;;;;;14.55;6.40;;;15.90;90.90;;;;;;4977682;28;20023;-76
2021/07/02 06:21:01;;;;;;;14.77;6.93;;;15.90;90.90;;;;;;4977554;28;20113;-76
2021/07/02 06:23:33;;;;;;;15.70;6.88;;;15.90;90.90;;;;;;4976911;28;20033;-77
2021/07/02 06:26:00;;;;;;;13.40;6.00;;;16.00;90.90;;;;;;4994931;28;20026;-76
2021/07/02 06:28:28;;;;;;;18.45;6.97;;;16.00;90.90;;;;;;4976724;28;20386;-76
2021/07/02 06:30:54;;;;;;;15.20;6.30;;;16.00;90.80;;;;;;4977447;28;20029;-76
2021/07/02 06:33:20;;;;;;;12.90;5.95;;;16.00;90.70;;;;;;4976619;28;20077;-76
2021/07/02 06:35:46;;;;;;;12.52;6.05;;;16.10;91.00;;;;;;4977288;28;20027;-76
2021/07/02 06:38:12;;;;;;;16.10;7.18;;;16.10;90.70;;;;;;4976697;28;20022;-76
2021/07/02 06:40:37;;;;;;;18.27;6.22;;;16.20;90.70;;;;;;4994536;28;20062;-76
2021/07/02 06:43:03;;;;;;;14.00;6.80;;;16.20;90.60;;;;;;4977114;28;20026;-76
2021/07/02 06:45:30;;;;;;;13.30;7.13;;;16.30;90.50;;;;;;4976440;28;20042;-76
2021/07/02 06:48:01;;;;;;;12.02;5.15;;;16.40;90.40;;;;;;4977012;28;20026;-76
2021/07/02 06:50:30;;;;;;;13.77;7.30;;;16.40;90.40;;;;;;4976562;28;20077;-76
2021/07/02 06:52:56;;;;;;;14.57;6.15;;;16.40;90.30;;;;;;4994246;28;20074;-75
2021/07/02 06:55:23;;;;;;;14.43;6.30;;;16.40;90.30;;;;;;4976329;28;20076;-76
2021/07/02 06:57:48;;;;;;;11.43;5.70;;;16.40;90.30;;;;;;4976854;28;20023;-76
2021/07/02 07:00:17;;;;;;;15.23;7.00;;;16.40;90.60;;;;;;4992758;28;20076;-77
2021/07/02 07:02:44;;;;;;;9.15;4.50;;;16.50;90.30;;;;;;4976877;28;20168;-76
2021/07/02 07:05:10;;;;;;;13.25;6.05;;;16.50;90.30;;;;;;4976297;28;20478;-79
2021/07/02 07:07:36;;;;;;;17.45;6.25;;;16.50;90.20;;;;;;4976712;28;20058;-76
2021/07/02 07:10:03;;;;;;;17.05;6.93;;;16.50;90.20;;;;;;4959143;28;20484;-76
2021/07/02 07:12:29;;;;;;;10.82;5.68;;;16.60;90.20;;;;;;4953380;29;20376;-76
2021/07/02 07:14:55;;;;;;;14.23;5.82;;;16.60;90.20;;;;;;4954055;29;20022;-76
2021/07/02 07:17:20;;;;;;;15.63;6.45;;;16.70;90.10;;;;;;4953333;29;20538;-76
2021/07/02 07:19:47;;;;;;;15.23;5.75;;;16.70;90.10;;;;;;4955291;29;20030;-76
2021/07/02 07:22:13;;;;;;;13.98;6.03;;;16.70;90.00;;;;;;4953374;29;20023;-77
2021/07/02 07:24:38;;;;;;;8.18;4.28;;;16.80;90.00;;;;;;4954918;29;20106;-76
2021/07/02 07:27:04;;;;;;;15.57;6.18;;;16.80;90.00;;;;;;4953889;29;20024;-77
2021/07/02 07:29:30;;;;;;;13.70;5.78;;;16.90;89.80;;;;;;4953231;29;20534;-76
2021/07/02 07:31:56;;;;;;;14.15;6.45;;;17.00;89.60;;;;;;4953710;29;20371;-77
2021/07/02 07:34:46;;;;;;;13.18;6.07;;;17.10;89.40;;;;;;4952580;29;20479;-78
2021/07/02 07:37:10;;;;;;;16.85;6.30;;;17.10;89.20;;;;;;4954223;29;20039;-77
2021/07/02 07:39:36;;;;;;;13.40;6.32;;;17.20;89.00;;;;;;4952837;29;20114;-78
2021/07/02 07:42:03;;;;;;;16.38;7.53;;;17.40;88.50;;;;;;4953597;29;20415;-77
2021/07/02 07:44:29;;;;;;;14.15;5.78;;;17.50;87.90;;;;;;4954082;28;20436;-77
2021/07/02 07:46:55;;;;;;;16.13;7.10;;;17.60;87.70;;;;;;4953277;29;20050;-77
2021/07/02 07:49:22;;;;;;;14.95;7.20;;;17.60;87.50;;;;;;4952811;29;20438;-78
2021/07/02 07:52:37;;;;;;;10.93;6.40;;;17.60;87.50;;;;;;4953421;29;20031;-77
2021/07/02 07:54:38;;;;;;;12.65;6.25;;;17.60;87.40;;;;;;4950736;29;20118;-77
2021/07/02 07:57:03;;;;;;;15.02;7.07;;;17.60;87.60;;;;;;4954604;29;20032;-77
2021/07/02 07:59:30;;;;;;;13.23;6.28;;;17.60;87.70;;;;;;4952694;29;20034;-76
2021/07/02 08:01:56;;;;;;;14.13;7.03;;;17.60;87.80;;;;;;4953290;29;20135;-76
2021/07/02 08:04:22;;;;;;;9.80;5.40;;;17.70;87.70;;;;;;4952746;29;20166;-76
2021/07/02 08:06:50;;;;;;;11.57;6.20;;;17.80;87.50;;;;;;4952956;29;20460;-76
2021/07/02 08:09:16;;;;;;;13.55;7.40;;;17.90;87.30;;;;;;4955908;28;20063;-78
2021/07/02 08:11:42;;;;;;;13.15;6.97;;;17.90;87.10;;;;;;4952891;28;20122;-77
2021/07/02 08:14:09;;;;;;;14.02;6.75;;;18.00;87.00;;;;;;4952703;29;20015;-76
2021/07/02 08:16:35;;;;;;;8.98;5.53;;;18.10;86.90;;;;;;4952423;29;20138;-77
2021/07/02 08:19:02;;;;;;;12.65;5.97;;;18.20;86.50;;;;;;4953071;29;20019;-77
2021/07/02 08:21:28;;;;;;;11.10;5.25;;;18.40;86.10;;;;;;4952274;29;20023;-77
2021/07/02 08:23:54;;;;;;;14.57;6.63;;;18.50;85.60;;;;;;4953004;29;20019;-77
2021/07/02 08:26:20;;;;;;;10.93;6.35;;;18.60;85.50;;;;;;4952347;29;20031;-78
2021/07/02 08:31:32;;;;;;;12.75;6.00;;;18.60;85.40;;;;;;4953688;29;20133;-77
2021/07/02 08:34:01;;;;;;;14.02;6.55;;;18.60;85.40;;;;;;4952826;29;20031;-77
2021/07/02 08:36:27;;;;;;;9.93;4.95;;;18.60;85.40;;;;;;4952163;29;20038;-77
2021/07/02 08:38:52;;;;;;;13.52;7.18;;;18.70;85.30;;;;;;4952717;29;20539;-77
2021/07/02 08:41:18;;;;;;;11.07;5.88;;;18.70;85.10;;;;;;4953428;29;20387;-76
2021/07/02 08:43:47;;;;;;;11.98;6.45;;;18.80;85.00;;;;;;4952720;29;20023;-76
2021/07/02 08:46:14;;;;;;;10.73;6.18;;;18.80;84.70;;;;;;4952548;29;20131;-77
2021/07/02 08:48:40;;;;;;;14.73;7.50;;;18.80;84.70;;;;;;4951960;29;20094;-77
2021/07/02 08:51:07;;;;;;;9.63;4.85;;;18.80;84.80;;;;;;4952649;29;20494;-76
2021/07/02 08:53:34;;;;;;;12.57;6.63;;;18.80;84.90;;;;;;4952007;29;20031;-76
2021/07/02 08:56:03;;;;;;;14.07;7.45;;;18.90;84.60;;;;;;4952507;29;20035;-78
2021/07/02 08:58:29;;;;;;;15.10;6.68;;;19.00;84.30;;;;;;4951967;29;20031;-77
2021/07/02 09:00:55;;;;;;;12.23;6.60;;;19.10;84.10;;;;;;4952580;29;20031;-77
2021/07/02 09:03:28;;;;;;;15.27;7.70;;;19.10;83.80;;;;;;4951558;29;20035;-77
2021/07/02 09:05:56;;;;;;;12.25;7.00;;;19.20;83.60;;;;;;4952045;29;20178;-77
2021/07/02 09:08:23;;;;;;;13.18;7.32;;;19.20;83.60;;;;;;4951768;29;20080;-77
2021/07/02 09:10:48;;;;;;;14.25;7.13;;;19.30;83.50;;;;;;4986239;28;20046;-78
2021/07/02 09:13:15;;;;;;;11.70;6.82;;;19.40;83.40;;;;;;4992324;28;20360;-78
2021/07/02 09:15:42;;;;;;;12.50;6.32;;;19.50;83.20;;;;;;4990470;28;20033;-77
2021/07/02 09:18:08;;;;;;;11.48;6.70;;;19.60;83.00;;;;;;4975006;28;20027;-77
2021/07/02 09:20:36;;;;;;;12.30;6.30;;;19.60;82.80;;;;;;4991443;28;20053;-78
2021/07/02 09:23:04;;;;;;;13.65;7.43;;;19.70;82.50;;;;;;4976567;28;20386;-77
2021/07/02 09:25:36;;;;;;;13.00;7.20;;;19.70;82.30;;;;;;4977885;28;20084;-78
2021/07/02 09:28:11;;;;;;;13.27;7.43;;;19.80;82.30;;;;;;4978716;28;20057;-77
2021/07/02 09:30:42;;;;;;;15.15;7.57;;;19.80;82.20;;;;;;4977881;28;20026;-77
2021/07/02 09:33:10;;;;;;;14.73;7.57;;;19.80;82.40;;;;;;4978132;28;20023;-77
2021/07/02 09:35:45;;;;;;;11.52;6.15;;;19.80;82.40;;;;;;4977776;28;20369;-77
2021/07/02 09:38:11;;;;;;;13.60;7.18;;;19.70;82.50;;;;;;4978473;28;20022;-77
2021/07/02 09:40:38;;;;;;;15.35;6.75;;;19.70;82.60;;;;;;4977752;28;20433;-77
2021/07/02 09:43:18;;;;;;;12.15;6.28;;;19.60;82.90;;;;;;4995833;28;20080;-76
2021/07/02 09:45:50;;;;;;;10.10;5.28;;;19.60;82.90;;;;;;4977470;28;20025;-76
2021/07/02 09:48:19;;;;;;;9.93;5.60;;;19.60;82.80;;;;;;4978246;28;20109;-77
2021/07/02 09:50:59;;;;;;;14.02;6.22;;;19.70;82.70;;;;;;4977427;28;20026;-77
2021/07/02 09:53:28;;;;;;;12.70;5.78;;;19.70;82.70;;;;;;4977670;28;20069;-78
2021/07/02 09:55:56;;;;;;;11.38;6.25;;;19.80;82.40;;;;;;4977968;28;20026;-77
2021/07/02 09:58:33;;;;;;;14.13;6.07;;;19.80;82.10;;;;;;4994792;28;20085;-78
2021/07/02 10:01:00;;;;;;;11.73;6.22;;;19.90;82.00;;;;;;4978006;28;20029;-77
2021/07/02 10:03:38;;;;;;;15.48;7.40;;;19.90;81.90;;;;;;4977449;28;20022;-77
2021/07/02 10:06:06;;;;;;;15.80;7.10;;;19.90;81.80;;;;;;4978021;28;20057;-77
2021/07/02 10:08:33;;;;;;;14.75;7.57;;;19.90;82.10;;;;;;4977341;28;20355;-78
2021/07/02 10:11:00;;;;;;;20.50;10.15;;;19.80;82.10;;;;;;4995549;28;20042;-77
2021/07/02 10:13:31;;;;;;;18.60;8.85;;;19.80;82.10;;;;;;4994635;28;20026;-77
2021/07/02 10:15:59;;;;;;;12.50;6.68;;;19.80;82.20;;;;;;4977669;28;20108;-77
2021/07/02 10:18:28;;;;;;;15.25;7.85;;;19.90;82.00;;;;;;4994554;28;20458;-78
2021/07/02 10:20:55;;;;;;;17.17;8.65;;;20.00;82.00;;;;;;4977505;28;20023;-77
2021/07/02 10:23:35;;;;;;;17.98;8.05;;;20.10;81.70;;;;;;4977563;28;20018;-77
2021/07/02 10:26:04;;;;;;;17.25;7.18;;;20.20;81.60;;;;;;4977583;28;20034;-77
2021/07/02 10:28:30;;;;;;;15.80;8.07;;;20.20;81.40;;;;;;4994391;28;20025;-77
2021/07/02 10:30:57;;;;;;;18.58;8.10;;;20.30;81.40;;;;;;4977572;28;20033;-77
2021/07/02 10:33:25;;;;;;;16.75;8.55;;;20.20;81.20;;;;;;4994841;28;20034;-78
2021/07/02 10:36:00;;;;;;;17.73;7.65;;;20.30;81.30;;;;;;4994893;28;20533;-78
2021/07/02 10:38:37;;;;;;;15.65;7.50;;;20.30;81.20;;;;;;4976803;28;20049;-78
2021/07/02 10:41:14;;;;;;;17.08;7.55;;;20.30;81.00;;;;;;4977284;28;20417;-77
2021/07/02 10:44:03;;;;;;;16.52;8.10;;;20.30;81.10;;;;;;4993859;28;20029;-76
2021/07/02 10:46:30;;;;;;;16.13;7.97;;;20.30;81.00;;;;;;4976571;28;20061;-77
2021/07/02 10:48:56;;;;;;;13.85;7.43;;;20.20;81.20;;;;;;4977043;28;20032;-76
2021/07/02 10:51:32;;;;;;;18.13;8.18;;;20.30;81.10;;;;;;4977047;28;20424;-77
2021/07/02 10:54:16;;;;;;;15.88;8.50;;;20.30;81.10;;;;;;4977242;28;20088;-77
2021/07/02 10:57:00;;;;;;;15.38;7.22;;;20.20;81.00;;;;;;4976276;28;20030;-76
2021/07/02 10:59:38;;;;;;;12.48;6.88;;;20.10;81.40;;;;;;4976822;28;20062;-79
2021/07/02 11:02:06;;;;;;;13.35;7.00;;;20.00;81.60;;;;;;4994585;28;20106;-77
2021/07/02 11:04:39;;;;;;;15.63;7.00;;;19.90;81.80;;;;;;4976211;28;20474;-77
2021/07/02 11:07:20;;;;;;;17.98;8.80;;;19.90;81.90;;;;;;4977054;28;20034;-76
2021/07/02 11:09:49;;;;;;;13.82;7.07;;;20.00;81.90;;;;;;4975725;28;20509;-77
2021/07/02 11:12:17;;;;;;;13.20;7.32;;;20.10;81.70;;;;;;4976790;28;20470;-76
2021/07/02 11:14:55;;;;;;;14.52;7.55;;;20.10;81.40;;;;;;4975961;28;20023;-76
2021/07/02 11:17:27;;;;;;;15.05;7.45;;;20.10;81.30;;;;;;4994104;28;20026;-77
2021/07/02 11:20:11;;;;;;;14.75;7.60;;;20.20;81.30;;;;;;4976454;28;20077;-77
2021/07/02 11:22:43;;;;;;;12.07;6.38;;;20.20;81.00;;;;;;4993533;28;20190;-76
2021/07/02 11:25:22;;;;;;;15.60;7.47;;;20.20;81.10;;;;;;4976640;28;20386;-76
2021/07/02 11:27:49;;;;;;;13.30;7.30;;;20.20;81.20;;;;;;4975790;28;20664;-76
2021/07/02 11:32:54;;;;;;;14.68;8.05;;;20.20;81.30;;;;;;4993237;28;20038;-78
2021/07/02 11:35:29;;;;;;;16.48;7.72;;;20.10;81.40;;;;;;4976204;28;20022;-76
2021/07/02 11:38:04;;;;;;;12.68;6.13;;;20.10;81.70;;;;;;4976135;28;20132;-77
2021/07/02 11:41:01;;;;;;;13.63;7.22;;;20.00;81.90;;;;;;4992961;28;20482;-78
2021/07/02 11:43:38;;;;;;;13.75;6.55;;;20.10;81.80;;;;;;4964413;28;20038;-77
2021/07/02 11:46:14;;;;;;;11.88;7.07;;;20.30;81.50;;;;;;4992835;28;20073;-77
2021/07/02 11:48:45;;;;;;;13.35;6.82;;;20.30;81.20;;;;;;4974964;28;20026;-75
2021/07/02 11:51:16;;;;;;;;;;;20.30;81.10;;;;;;4993919;28;20030;-76
2021/07/02 11:53:50;;;;;;;14.02;7.07;;;20.30;81.10;;;;;;4975389;28;19913;-76
2021/07/02 11:56:24;;;;;;;15.40;7.50;;;20.30;81.10;;;;;;4975763;28;20026;-77
2021/07/02 11:59:03;;;;;;;15.13;7.53;;;20.30;81.20;;;;;;4975177;28;20479;-77
2021/07/02 12:01:39;;;;;;;14.25;7.05;;;20.10;81.40;;;;;;4975953;28;20331;-77
2021/07/02 12:04:11;;;;;;;13.55;6.90;;;20.00;81.90;;;;;;4975831;28;20027;-77
2021/07/02 12:06:45;;;;;;;13.32;6.97;;;19.90;82.30;;;;;;4975057;28;20035;-76
2021/07/02 12:09:16;;;;;;;12.90;7.53;;;19.70;82.60;;;;;;4975356;28;20053;-76
2021/07/02 12:11:55;;;;;;;;;;;19.70;82.90;;;;;;4975298;28;20033;-76
2021/07/02 12:14:25;;;;;;;11.20;6.07;;;19.60;83.10;;;;;;4975459;28;19914;-76
2021/07/02 12:16:52;;;;;;;15.45;6.30;;;19.70;83.20;;;;;;4974766;28;20296;-78
2021/07/02 12:19:24;;;;;;;10.93;5.78;;;19.70;83.00;;;;;;4975375;28;20488;-76
2021/07/02 12:21:51;;;;;;;12.82;6.00;;;19.90;82.90;;;;;;4974860;28;20486;-76
2021/07/02 12:24:21;;;;;;;13.18;6.43;;;20.10;82.40;;;;;;4975132;28;20034;-76
2021/07/02 12:27:01;;;;;;;13.82;5.85;;;20.40;81.90;;;;;;4974663;28;20038;-76
2021/07/02 12:29:29;;;;;;;12.73;6.30;;;20.60;81.40;;;;;;4975384;28;20034;-76
2021/07/02 12:31:57;;;;;;;11.70;6.28;;;20.60;81.20;;;;;;4974693;28;20019;-76
2021/07/02 12:34:25;;;;;;;10.70;5.43;;;20.60;81.40;;;;;;4975229;28;20105;-76
2021/07/02 12:36:55;;;;;;;13.70;6.13;;;20.50;81.60;;;;;;4974569;28;20034;-76
2021/07/02 12:39:30;;;;;;;11.17;5.80;;;20.40;81.70;;;;;;4975259;28;20130;-78
2021/07/02 12:42:28;;;;;;;12.32;5.35;;;20.30;82.10;;;;;;4992152;28;20152;-77
2021/07/02 12:44:58;;;;;;;11.32;5.25;;;20.30;82.50;;;;;;4932040;28;20050;-77
2021/07/02 12:47:28;;;;;;;9.10;4.13;;;20.20;82.60;;;;;;4974654;28;20034;-77